Skip Navigation Links
NOAA logo - Click to go to the NOAA homepage
NOAA's National Weather Service
Alaska Aviation Weather Unit
  NWS logo - Click to go to the NWS homepage
Left Navbar Graphic     09 AKDT = 17 GMT

   
NOAA is celebrating 200 years of science, service, and stewardship. Visit the NOAA 200th celebration Web site to learn more.
USA.gov is the U.S. Government's official Web portal to all Federal, state and local government Web resources and services.
Facebook
NWS on Facebook

Important Change Regarding the AAWU Web Presence

 

Over the last several months, the AAWU has been working to navigate its webpages to a nationally supported server. Security, as well as other needs, have necessitated the change.  In the process, we have made an effort to enhance the functionality of our website, as well as some of our products. As of June 20, 2017, aawu.arh.noaa.gov will be discontinued. The new AAWU web address is weather.gov/aawu. It is now live and will run in-parallel with the old site until it is discontinued. Please send any feedback or questions regarding the new webpages to nws.ar.aawu.webauthors@noaa.gov.  Thank you for your patience during this time of transition.
AAWU Home :: Display TAF Add Bookmark
PACZ 271117Z AUTO 17007KT 8SM -SHRASN OVC006 01/00 A2979=

PACZ 271132Z AUTO 16008KT 10SM -SHRASN BKN009 01/00 A2979=

PACZ 271147Z AUTO 20007KT 10SM -RA BKN010 01/00 A2980=

METAR PACZ 271155Z AUTO 17007KT 10SM -RA BKN010 01/00 A2980=

PACZ 271202Z AUTO VRB04KT 10SM -RASN OVC010 01/00 A2980=

METAR PACZ 271255Z AUTO 19005KT 10SM -SHRA OVC009 01/00 A2981=

PACZ 271302Z AUTO 23006KT 10SM -SHRA OVC010 01/00 A2981=

PACZ 271317Z AUTO 22007KT 10SM -SHRA OVC011 01/00 A2981=

PACZ 271347Z AUTO 19006KT 10SM OVC014 01/00 A2981=

METAR PACZ 271355Z AUTO 18006KT 10SM OVC014 02/00 A2981=

PACZ 271402Z AUTO 19004KT 10SM OVC017 02/00 A2981=

PACZ 271432Z AUTO 27009KT 8SM -DZ BKN006 01/01 A2981=

METAR PACZ 271455Z AUTO 23003KT 10SM -SN BKN003 OVC020 01/01 A2982=

PACZ 271517Z AUTO 23003KT 2SM -RASN OVC003 01/00 A2982=

PACZ 271532Z AUTO 00000KT 4SM -SN OVC007 01/00 A2982=

PACZ 271547Z AUTO 23001KT 10SM -RASN OVC007 01/00 A2982=

METAR PACZ 271555Z AUTO 23001KT 10SM -RA OVC007 01/00 A2982=

PACZ 271602Z AUTO 23001KT 10SM -RA OVC008 01/00 A2982=

PACZ 271617Z AUTO 29010KT 280V350 10SM BKN009 02/00 A2983=

PACZ 271632Z AUTO 30010KT 10SM BKN011 02/00 A2983=

METAR PACZ 271655Z AUTO 29011KT 10SM OVC011 02/00 A2983=

PACZ 271717Z AUTO 29008KT 10SM -SHRA BKN010 OVC028 02/00 A2984=


NOAA's National Weather Service
Alaska Aviation Weather Unit
6930 Sand Lake Road
Anchorage, AK 99502-1845
Disclaimer
Credits
Glossary
Privacy Policy
About Us
Career Opportunities
Contact AAWU Internet Services Site last modified: April, 17th 2012